createdAt,value
2022-11-07T00:00:27.321Z,1007.27
2022-11-07T00:01:27.364Z,1007.31
2022-11-07T00:02:27.394Z,1007.22
2022-11-07T00:03:27.315Z,1007.17
2022-11-07T00:04:27.314Z,1007.14
2022-11-07T00:05:27.316Z,1007.16
2022-11-07T00:06:27.316Z,1007.16
2022-11-07T00:07:27.317Z,1007.13
2022-11-07T00:08:27.307Z,1007.18
2022-11-07T00:09:27.303Z,1007.14
2022-11-07T00:10:27.302Z,1007.12
2022-11-07T00:11:27.307Z,1007.05
2022-11-07T00:12:27.296Z,1007.02
2022-11-07T00:13:27.299Z,1006.98
2022-11-07T00:14:27.314Z,1007.07
2022-11-07T00:15:27.300Z,1007.08
2022-11-07T00:16:27.294Z,1007.12
2022-11-07T00:17:27.295Z,1007.10
2022-11-07T00:18:27.290Z,1007.12
2022-11-07T00:19:27.285Z,1007.14
2022-11-07T00:20:27.289Z,1007.13
2022-11-07T00:21:27.281Z,1007.12
2022-11-07T00:22:27.285Z,1007.15
2022-11-07T00:23:27.276Z,1007.16
2022-11-07T00:24:27.278Z,1007.20
2022-11-07T00:25:27.275Z,1007.16
2022-11-07T00:26:27.268Z,1007.15
2022-11-07T00:27:27.328Z,1007.14
2022-11-07T00:28:27.266Z,1007.07
2022-11-07T00:29:27.263Z,1007.08
2022-11-07T00:30:27.288Z,1007.06
2022-11-07T00:31:27.262Z,1007.09
2022-11-07T00:32:27.261Z,1007.08
2022-11-07T00:33:27.262Z,1007.10
2022-11-07T00:34:27.253Z,1007.12
2022-11-07T00:35:27.257Z,1007.13
2022-11-07T00:36:27.252Z,1007.12
2022-11-07T00:37:27.247Z,1007.05
2022-11-07T00:38:27.247Z,1007.11
2022-11-07T00:39:27.247Z,1007.10
2022-11-07T00:40:27.244Z,1007.10
2022-11-07T00:41:27.250Z,1007.12
2022-11-07T00:42:27.238Z,1007.13
2022-11-07T00:43:27.239Z,1007.09
2022-11-07T00:44:27.238Z,1007.09
2022-11-07T00:45:27.230Z,1007.15
2022-11-07T00:46:27.252Z,1007.08
2022-11-07T00:47:27.231Z,1007.08
2022-11-07T00:48:27.227Z,1007.04
2022-11-07T00:49:27.226Z,1007.10
2022-11-07T00:50:27.227Z,1007.03
2022-11-07T00:51:27.221Z,1007.04
2022-11-07T00:52:27.222Z,1007.01
2022-11-07T00:53:27.219Z,1006.99
2022-11-07T00:54:27.217Z,1007.02
2022-11-07T00:55:27.214Z,1007.05
2022-11-07T00:56:27.218Z,1007.02
2022-11-07T00:57:27.212Z,1007.00
2022-11-07T00:58:27.210Z,1007.02
2022-11-07T00:59:27.216Z,1007.00
2022-11-07T01:00:27.213Z,1007.02
2022-11-07T01:01:27.382Z,1006.92
2022-11-07T01:02:27.419Z,1006.89
2022-11-07T01:03:27.200Z,1006.89
2022-11-07T01:04:27.205Z,1006.83
2022-11-07T01:05:27.195Z,1006.89
2022-11-07T01:06:27.198Z,1006.88
2022-11-07T01:07:27.194Z,1006.84
2022-11-07T01:08:27.191Z,1006.72
2022-11-07T01:09:27.188Z,1006.71
2022-11-07T01:10:27.187Z,1006.70
2022-11-07T01:11:27.185Z,1006.65
2022-11-07T01:12:27.183Z,1006.79
2022-11-07T01:13:27.187Z,1006.87
2022-11-07T01:14:27.176Z,1006.92
2022-11-07T01:15:27.180Z,1006.93
2022-11-07T01:16:27.173Z,1006.90
2022-11-07T01:17:27.176Z,1006.91
2022-11-07T01:18:27.187Z,1006.92
2022-11-07T01:19:27.172Z,1006.91
2022-11-07T01:20:27.165Z,1006.89
2022-11-07T01:21:27.160Z,1006.87
2022-11-07T01:22:27.165Z,1006.87
2022-11-07T01:23:27.164Z,1006.90
2022-11-07T01:24:27.155Z,1006.84
2022-11-07T01:25:27.159Z,1006.84
2022-11-07T01:26:27.168Z,1006.90
2022-11-07T01:27:27.154Z,1006.95
2022-11-07T01:28:27.157Z,1006.97
2022-11-07T01:29:27.150Z,1006.96
2022-11-07T01:30:27.143Z,1006.99
2022-11-07T01:31:27.151Z,1007.01
2022-11-07T01:32:27.144Z,1007.05
2022-11-07T01:33:27.139Z,1007.03
2022-11-07T01:34:27.159Z,1006.97
2022-11-07T01:35:27.135Z,1006.96
2022-11-07T01:36:27.137Z,1006.97
2022-11-07T01:37:27.159Z,1006.86
2022-11-07T01:38:27.144Z,1006.81
2022-11-07T01:39:27.129Z,1006.84
2022-11-07T01:40:27.124Z,1006.85
2022-11-07T01:41:27.147Z,1006.77
2022-11-07T01:42:27.142Z,1006.67
2022-11-07T01:43:27.118Z,1006.65
2022-11-07T01:44:27.190Z,1006.68
2022-11-07T01:45:27.133Z,1006.73
2022-11-07T01:46:27.115Z,1006.71
2022-11-07T01:47:27.137Z,1006.70
2022-11-07T01:48:27.105Z,1006.74
2022-11-07T01:49:27.114Z,1006.76
2022-11-07T01:50:27.140Z,1006.78
2022-11-07T01:51:27.103Z,1006.83
2022-11-07T01:52:27.108Z,1006.77
2022-11-07T01:53:27.107Z,1006.79
2022-11-07T01:54:27.101Z,1006.76
2022-11-07T01:55:27.101Z,1006.75
2022-11-07T01:56:27.090Z,1006.75
2022-11-07T01:57:27.149Z,1006.74
2022-11-07T01:58:27.097Z,1006.70
2022-11-07T01:59:27.086Z,1006.75
2022-11-07T02:00:27.081Z,1006.75
2022-11-07T02:01:27.248Z,1006.79
2022-11-07T02:02:27.256Z,1006.82
2022-11-07T02:03:27.075Z,1006.79
2022-11-07T02:04:27.078Z,1006.81
2022-11-07T02:05:27.093Z,1006.79
2022-11-07T02:06:27.126Z,1006.79
2022-11-07T02:07:27.073Z,1006.82
2022-11-07T02:08:27.067Z,1006.78
2022-11-07T02:09:27.068Z,1006.76
2022-11-07T02:10:27.064Z,1006.79
2022-11-07T02:11:27.067Z,1006.78
2022-11-07T02:12:27.056Z,1006.81
2022-11-07T02:13:27.057Z,1006.74
2022-11-07T02:14:27.055Z,1006.70
2022-11-07T02:15:27.051Z,1006.75
2022-11-07T02:16:27.054Z,1006.71
2022-11-07T02:17:27.052Z,1006.68
2022-11-07T02:18:27.043Z,1006.67
2022-11-07T02:19:27.047Z,1006.68
2022-11-07T02:20:27.044Z,1006.68
2022-11-07T02:21:27.043Z,1006.69
2022-11-07T02:22:27.070Z,1006.69
2022-11-07T02:23:27.038Z,1006.69
2022-11-07T02:24:27.041Z,1006.70
2022-11-07T02:25:27.033Z,1006.66
2022-11-07T02:26:27.030Z,1006.62
2022-11-07T02:27:27.030Z,1006.61
2022-11-07T02:28:27.028Z,1006.69
2022-11-07T02:29:27.027Z,1006.65
2022-11-07T02:30:27.021Z,1006.67
2022-11-07T02:31:27.022Z,1006.66
2022-11-07T02:32:27.016Z,1006.65
2022-11-07T02:33:27.016Z,1006.65
2022-11-07T02:34:27.015Z,1006.67
2022-11-07T02:35:27.011Z,1006.65
2022-11-07T02:36:27.011Z,1006.69
2022-11-07T02:37:27.007Z,1006.69
2022-11-07T02:38:27.033Z,1006.67
2022-11-07T02:39:27.003Z,1006.65
2022-11-07T02:40:27.002Z,1006.65
2022-11-07T02:41:26.995Z,1006.63
2022-11-07T02:42:27.001Z,1006.63
2022-11-07T02:43:26.998Z,1006.64
2022-11-07T02:44:26.997Z,1006.65
2022-11-07T02:45:27.096Z,1006.66
2022-11-07T02:46:26.996Z,1006.67
2022-11-07T02:47:26.987Z,1006.64
2022-11-07T02:48:26.986Z,1006.64
2022-11-07T02:49:27.031Z,1006.67
2022-11-07T02:50:26.981Z,1006.66
2022-11-07T02:51:26.976Z,1006.67
2022-11-07T02:52:26.983Z,1006.67
2022-11-07T02:53:26.975Z,1006.71
2022-11-07T02:54:27.001Z,1006.65
2022-11-07T02:55:26.971Z,1006.68
2022-11-07T02:56:26.978Z,1006.64
2022-11-07T02:57:26.970Z,1006.66
2022-11-07T02:58:26.965Z,1006.68
2022-11-07T02:59:27.373Z,1006.72
2022-11-07T03:00:26.962Z,1006.70
2022-11-07T03:01:27.094Z,1006.68
2022-11-07T03:02:27.131Z,1006.70
2022-11-07T03:03:26.956Z,1006.67
2022-11-07T03:04:26.955Z,1006.72
2022-11-07T03:05:26.955Z,1006.73
2022-11-07T03:06:26.949Z,1006.73
2022-11-07T03:07:26.947Z,1006.72
2022-11-07T03:08:26.947Z,1006.76
2022-11-07T03:09:26.941Z,1006.74
2022-11-07T03:10:27.048Z,1006.76
2022-11-07T03:11:26.943Z,1006.78
2022-11-07T03:12:26.940Z,1006.78
2022-11-07T03:13:26.933Z,1006.77
2022-11-07T03:14:26.961Z,1006.80
2022-11-07T03:15:26.930Z,1006.82
2022-11-07T03:16:26.928Z,1006.83
2022-11-07T03:17:26.930Z,1006.81
2022-11-07T03:18:26.925Z,1006.85
2022-11-07T03:19:26.923Z,1006.86
2022-11-07T03:20:26.921Z,1006.84
2022-11-07T03:21:26.920Z,1006.83
2022-11-07T03:22:26.916Z,1006.82
2022-11-07T03:23:26.915Z,1006.80
2022-11-07T03:24:26.929Z,1006.83
2022-11-07T03:25:26.907Z,1006.82
2022-11-07T03:26:26.927Z,1006.82
2022-11-07T03:27:26.905Z,1006.82
2022-11-07T03:28:26.912Z,1006.81
2022-11-07T03:29:26.902Z,1006.87
2022-11-07T03:30:26.899Z,1006.93
2022-11-07T03:31:26.908Z,1006.93
2022-11-07T03:32:26.898Z,1006.91
2022-11-07T03:33:26.896Z,1006.96
2022-11-07T03:34:26.895Z,1007.02
2022-11-07T03:35:26.886Z,1007.02
2022-11-07T03:36:26.893Z,1007.10
2022-11-07T03:37:26.889Z,1007.10
2022-11-07T03:38:26.886Z,1007.09
2022-11-07T03:39:26.892Z,1007.17
2022-11-07T03:40:26.890Z,1007.13
2022-11-07T03:41:26.884Z,1007.16
2022-11-07T03:42:26.901Z,1007.19
2022-11-07T03:43:26.878Z,1007.19
2022-11-07T03:44:26.872Z,1007.22
2022-11-07T03:45:26.875Z,1007.24
2022-11-07T03:46:26.878Z,1007.20
2022-11-07T03:47:26.868Z,1007.20
2022-11-07T03:48:26.868Z,1007.22
2022-11-07T03:49:26.913Z,1007.22
2022-11-07T03:50:26.860Z,1007.22
2022-11-07T03:51:26.862Z,1007.26
2022-11-07T03:52:26.860Z,1007.24
2022-11-07T03:53:27.446Z,1007.22
2022-11-07T03:54:26.859Z,1007.25
2022-11-07T03:55:26.852Z,1007.24
2022-11-07T03:56:26.857Z,1007.21
2022-11-07T03:57:26.846Z,1007.23
2022-11-07T03:58:26.870Z,1007.25
2022-11-07T03:59:26.842Z,1007.23
2022-11-07T04:00:26.848Z,1007.27
2022-11-07T04:01:27.012Z,1007.26
2022-11-07T04:02:26.997Z,1007.23
2022-11-07T04:03:26.836Z,1007.31
2022-11-07T04:04:26.836Z,1007.30
2022-11-07T04:05:26.841Z,1007.34
2022-11-07T04:06:26.834Z,1007.28
2022-11-07T04:07:26.830Z,1007.29
2022-11-07T04:08:26.834Z,1007.29
2022-11-07T04:09:26.825Z,1007.24
2022-11-07T04:10:26.823Z,1007.30
2022-11-07T04:11:26.826Z,1007.29
2022-11-07T04:12:26.823Z,1007.27
2022-11-07T04:13:26.817Z,1007.28
2022-11-07T04:14:26.836Z,1007.23
2022-11-07T04:15:26.815Z,1007.22
2022-11-07T04:16:26.811Z,1007.27
2022-11-07T04:17:26.810Z,1007.24
2022-11-07T04:18:26.811Z,1007.26
2022-11-07T04:19:26.806Z,1007.29
2022-11-07T04:20:26.810Z,1007.36
2022-11-07T04:21:26.809Z,1007.34
2022-11-07T04:22:26.810Z,1007.33
2022-11-07T04:23:26.801Z,1007.30
2022-11-07T04:24:26.800Z,1007.31
2022-11-07T04:25:26.797Z,1007.29
2022-11-07T04:26:26.799Z,1007.30
2022-11-07T04:27:26.796Z,1007.29
2022-11-07T04:28:26.796Z,1007.34
2022-11-07T04:29:26.790Z,1007.28
2022-11-07T04:30:26.812Z,1007.28
2022-11-07T04:31:26.785Z,1007.25
2022-11-07T04:32:26.788Z,1007.24
2022-11-07T04:33:26.784Z,1007.22
2022-11-07T04:34:26.779Z,1007.26
2022-11-07T04:35:26.778Z,1007.27
2022-11-07T04:36:26.778Z,1007.29
2022-11-07T04:37:26.792Z,1007.29
2022-11-07T04:38:26.780Z,1007.28
2022-11-07T04:39:26.776Z,1007.28
2022-11-07T04:40:26.774Z,1007.25
2022-11-07T04:41:26.765Z,1007.28
2022-11-07T04:42:26.768Z,1007.28
2022-11-07T04:43:26.765Z,1007.30
2022-11-07T04:44:26.764Z,1007.31
2022-11-07T04:45:26.761Z,1007.33
2022-11-07T04:46:26.865Z,1007.36
2022-11-07T04:47:26.756Z,1007.36
2022-11-07T04:48:26.761Z,1007.37
2022-11-07T04:49:26.806Z,1007.36
2022-11-07T04:50:26.757Z,1007.36
2022-11-07T04:51:26.757Z,1007.39
2022-11-07T04:52:26.756Z,1007.35
2022-11-07T04:53:26.746Z,1007.36
2022-11-07T04:54:26.750Z,1007.35
2022-11-07T04:55:26.753Z,1007.39
2022-11-07T04:56:29.437Z,1007.41
2022-11-07T04:57:26.743Z,1007.39
2022-11-07T04:58:26.744Z,1007.40
2022-11-07T04:59:26.740Z,1007.43
2022-11-07T05:00:26.738Z,1007.45
2022-11-07T05:01:26.785Z,1007.43
2022-11-07T05:02:27.007Z,1007.48
2022-11-07T05:03:26.734Z,1007.52
2022-11-07T05:04:26.734Z,1007.44
2022-11-07T05:05:26.728Z,1007.43
2022-11-07T05:06:26.731Z,1007.47
2022-11-07T05:07:26.727Z,1007.47
2022-11-07T05:08:26.728Z,1007.40
2022-11-07T05:09:26.724Z,1007.42
2022-11-07T05:10:26.719Z,1007.45
2022-11-07T05:11:26.739Z,1007.47
2022-11-07T05:12:26.720Z,1007.52
2022-11-07T05:13:26.737Z,1007.54
2022-11-07T05:14:26.716Z,1007.57
2022-11-07T05:15:26.715Z,1007.54
2022-11-07T05:16:26.715Z,1007.57
2022-11-07T05:17:28.120Z,1007.65
2022-11-07T05:18:26.733Z,1007.62
2022-11-07T05:19:26.707Z,1007.65
2022-11-07T05:20:26.712Z,1007.69
2022-11-07T05:21:26.706Z,1007.67
2022-11-07T05:22:26.699Z,1007.69
2022-11-07T05:23:26.699Z,1007.63
2022-11-07T05:24:26.701Z,1007.58
2022-11-07T05:25:26.697Z,1007.69
2022-11-07T05:26:26.696Z,1007.68
2022-11-07T05:27:26.694Z,1007.68
2022-11-07T05:28:35.154Z,1007.68
2022-11-07T05:29:26.700Z,1007.71
2022-11-07T05:30:26.689Z,1007.60
2022-11-07T05:31:26.689Z,1007.63
2022-11-07T05:32:26.686Z,1007.65
2022-11-07T05:33:26.687Z,1007.72
2022-11-07T05:34:26.707Z,1007.71
2022-11-07T05:35:26.682Z,1007.73
2022-11-07T05:36:26.682Z,1007.70
2022-11-07T05:37:26.675Z,1007.73
2022-11-07T05:38:26.675Z,1007.72
2022-11-07T05:39:26.673Z,1007.68
2022-11-07T05:40:26.678Z,1007.72
2022-11-07T05:41:26.678Z,1007.69
2022-11-07T05:42:26.674Z,1007.71
2022-11-07T05:43:26.669Z,1007.68
2022-11-07T05:44:26.668Z,1007.66
2022-11-07T05:45:26.667Z,1007.71
2022-11-07T05:46:26.660Z,1007.73
2022-11-07T05:47:26.671Z,1007.73
2022-11-07T05:48:26.665Z,1007.77
2022-11-07T05:49:26.663Z,1007.84
2022-11-07T05:50:26.682Z,1007.83
2022-11-07T05:51:26.653Z,1007.86
2022-11-07T05:52:26.658Z,1007.83
2022-11-07T05:53:26.712Z,1007.85
2022-11-07T05:54:26.650Z,1007.89
2022-11-07T05:55:26.652Z,1007.86
2022-11-07T05:56:26.657Z,1007.88
2022-11-07T05:57:26.644Z,1007.89
2022-11-07T05:58:26.649Z,1007.90
2022-11-07T05:59:26.659Z,1007.89
2022-11-07T06:00:26.651Z,1007.97
2022-11-07T06:01:26.668Z,1007.97
2022-11-07T06:02:26.751Z,1008.05
2022-11-07T06:03:26.638Z,1008.08
2022-11-07T06:04:26.637Z,1008.04
2022-11-07T06:05:26.635Z,1008.05
2022-11-07T06:06:26.739Z,1007.99
2022-11-07T06:07:26.635Z,1008.03
2022-11-07T06:08:26.627Z,1008.06
2022-11-07T06:09:26.630Z,1008.02
2022-11-07T06:10:26.630Z,1008.06
2022-11-07T06:11:26.625Z,1008.09
2022-11-07T06:12:26.624Z,1008.05
2022-11-07T06:13:26.625Z,1008.09
2022-11-07T06:14:26.629Z,1008.08
2022-11-07T06:15:26.625Z,1008.05
2022-11-07T06:16:26.625Z,1008.08
2022-11-07T06:17:26.627Z,1008.10
2022-11-07T06:18:26.615Z,1008.13
2022-11-07T06:19:26.616Z,1008.16
2022-11-07T06:20:26.614Z,1008.23
2022-11-07T06:21:26.610Z,1008.21
2022-11-07T06:22:26.633Z,1008.19
2022-11-07T06:23:26.605Z,1008.19
2022-11-07T06:24:26.610Z,1008.22
2022-11-07T06:25:26.606Z,1008.21
2022-11-07T06:26:26.605Z,1008.19
2022-11-07T06:27:26.605Z,1008.27
2022-11-07T06:28:26.599Z,1008.28
2022-11-07T06:29:26.597Z,1008.27
2022-11-07T06:30:26.601Z,1008.28
2022-11-07T06:31:26.594Z,1008.23
2022-11-07T06:32:26.598Z,1008.26
2022-11-07T06:33:26.594Z,1008.33
2022-11-07T06:34:26.592Z,1008.30
2022-11-07T06:35:26.592Z,1008.32
2022-11-07T06:36:26.588Z,1008.36
2022-11-07T06:37:26.594Z,1008.33
2022-11-07T06:38:26.617Z,1008.31
2022-11-07T06:39:26.580Z,1008.34
2022-11-07T06:40:26.587Z,1008.29
2022-11-07T06:41:26.582Z,1008.33
2022-11-07T06:42:26.581Z,1008.30
2022-11-07T06:43:26.874Z,1008.28
2022-11-07T06:44:26.585Z,1008.32
2022-11-07T06:45:26.576Z,1008.27
2022-11-07T06:46:26.574Z,1008.36
2022-11-07T06:47:26.572Z,1008.39
2022-11-07T06:48:26.570Z,1008.37
2022-11-07T06:49:26.618Z,1008.35
2022-11-07T06:50:26.568Z,1008.38
2022-11-07T06:51:26.563Z,1008.39
2022-11-07T06:52:26.566Z,1008.38
2022-11-07T06:53:26.567Z,1008.39
2022-11-07T06:54:26.578Z,1008.41
2022-11-07T06:55:26.559Z,1008.38
2022-11-07T06:56:26.555Z,1008.39
2022-11-07T06:57:26.556Z,1008.37
2022-11-07T06:58:26.556Z,1008.45
2022-11-07T06:59:26.557Z,1008.40
2022-11-07T07:00:26.636Z,1008.42
2022-11-07T07:01:26.689Z,1008.47
2022-11-07T07:02:52.204Z,1008.41
2022-11-07T07:03:26.554Z,1008.44
2022-11-07T07:04:26.550Z,1008.50
2022-11-07T07:05:26.544Z,1008.48
2022-11-07T07:06:26.550Z,1008.41
2022-11-07T07:07:26.546Z,1008.55
2022-11-07T07:08:26.544Z,1008.50
2022-11-07T07:09:26.540Z,1008.57
2022-11-07T07:10:26.658Z,1008.45
2022-11-07T07:11:26.539Z,1008.45
2022-11-07T07:12:26.546Z,1008.49
2022-11-07T07:13:26.542Z,1008.53
2022-11-07T07:14:26.536Z,1008.52
2022-11-07T07:15:26.536Z,1008.55
2022-11-07T07:16:26.535Z,1008.52
2022-11-07T07:17:26.536Z,1008.58
2022-11-07T07:18:26.529Z,1008.58
2022-11-07T07:19:26.525Z,1008.63
2022-11-07T07:20:26.528Z,1008.68
2022-11-07T07:21:26.528Z,1008.62
2022-11-07T07:22:26.528Z,1008.64
2022-11-07T07:23:26.522Z,1008.65
2022-11-07T07:24:26.519Z,1008.61
2022-11-07T07:25:26.518Z,1008.68
2022-11-07T07:26:26.635Z,1008.67
2022-11-07T07:27:26.519Z,1008.68
2022-11-07T07:28:26.515Z,1008.64
2022-11-07T07:29:26.515Z,1008.70
2022-11-07T07:30:26.513Z,1008.72
2022-11-07T07:31:26.517Z,1008.69
2022-11-07T07:32:26.511Z,1008.71
2022-11-07T07:33:26.510Z,1008.64
2022-11-07T07:34:26.507Z,1008.68
2022-11-07T07:35:26.513Z,1008.70
2022-11-07T07:36:26.507Z,1008.71
2022-11-07T07:37:26.506Z,1008.75
2022-11-07T07:38:26.506Z,1008.74
2022-11-07T07:39:26.500Z,1008.81
2022-11-07T07:40:26.503Z,1008.77
2022-11-07T07:41:26.498Z,1008.78
2022-11-07T07:42:26.612Z,1008.81
2022-11-07T07:43:26.494Z,1008.79
2022-11-07T07:44:26.495Z,1008.78
2022-11-07T07:45:26.529Z,1008.71
2022-11-07T07:46:26.489Z,1008.73
2022-11-07T07:47:26.493Z,1008.71
2022-11-07T07:48:26.488Z,1008.73
2022-11-07T07:49:26.487Z,1008.81
2022-11-07T07:50:26.487Z,1008.87
2022-11-07T07:51:26.490Z,1008.79
2022-11-07T07:52:26.484Z,1008.77
2022-11-07T07:53:26.482Z,1008.86
2022-11-07T07:54:26.482Z,1008.78
2022-11-07T07:55:26.484Z,1008.75
2022-11-07T07:56:26.484Z,1008.79
2022-11-07T07:57:26.482Z,1008.82
2022-11-07T07:58:26.598Z,1008.77
2022-11-07T07:59:26.480Z,1008.74
2022-11-07T08:00:26.482Z,1008.73
2022-11-07T08:01:26.570Z,1008.65
2022-11-07T08:02:26.550Z,1008.71
2022-11-07T08:03:29.309Z,1008.76
2022-11-07T08:04:26.476Z,1008.77
2022-11-07T08:05:26.474Z,1008.75
2022-11-07T08:06:26.469Z,1008.73
2022-11-07T08:07:26.473Z,1008.74
2022-11-07T08:08:26.472Z,1008.75
2022-11-07T08:09:26.468Z,1008.80
2022-11-07T08:10:43.085Z,1008.76
2022-11-07T08:11:26.463Z,1008.82
2022-11-07T08:12:26.466Z,1008.80
2022-11-07T08:13:26.460Z,1008.85
2022-11-07T08:14:26.572Z,1008.85
2022-11-07T08:15:26.463Z,1008.78
2022-11-07T08:16:26.462Z,1008.75
2022-11-07T08:17:26.466Z,1008.88
2022-11-07T08:18:26.454Z,1008.81
2022-11-07T08:19:26.461Z,1008.77
2022-11-07T08:20:26.500Z,1008.79
2022-11-07T08:21:26.455Z,1008.86
2022-11-07T08:22:26.454Z,1008.84
2022-11-07T08:23:26.453Z,1008.82
2022-11-07T08:24:26.459Z,1008.94
2022-11-07T08:25:26.450Z,1008.91
2022-11-07T08:26:26.449Z,1008.88
2022-11-07T08:27:26.452Z,1009.00
2022-11-07T08:28:26.450Z,1008.92
2022-11-07T08:29:26.448Z,1008.97
2022-11-07T08:30:26.564Z,1008.96
2022-11-07T08:31:26.450Z,1009.00
2022-11-07T08:32:26.447Z,1008.98
2022-11-07T08:33:26.502Z,1009.07
2022-11-07T08:34:26.446Z,1009.08
2022-11-07T08:35:26.442Z,1009.22
2022-11-07T08:36:26.444Z,1009.11
2022-11-07T08:37:26.444Z,1009.03
2022-11-07T08:38:26.440Z,1009.03
2022-11-07T08:39:26.442Z,1008.99
2022-11-07T08:40:26.438Z,1008.95
2022-11-07T08:41:26.447Z,1008.92
2022-11-07T08:42:26.454Z,1008.95
2022-11-07T08:43:26.440Z,1008.93
2022-11-07T08:44:26.435Z,1008.87
2022-11-07T08:45:26.436Z,1008.92
2022-11-07T08:46:26.524Z,1008.84
2022-11-07T08:47:26.434Z,1008.97
2022-11-07T08:48:26.432Z,1009.00
2022-11-07T08:49:26.433Z,1008.99
2022-11-07T08:50:26.436Z,1008.91
2022-11-07T08:51:26.433Z,1008.95
2022-11-07T08:52:26.435Z,1008.99
2022-11-07T08:53:26.430Z,1008.97
2022-11-07T08:54:26.431Z,1008.88
2022-11-07T08:55:26.428Z,1008.94
2022-11-07T08:56:26.428Z,1008.95
2022-11-07T08:57:26.428Z,1008.94
2022-11-07T08:58:29.979Z,1008.94
2022-11-07T08:59:26.435Z,1009.03
2022-11-07T09:00:26.429Z,1008.98
2022-11-07T09:01:26.561Z,1009.11
2022-11-07T09:04:26.462Z,1009.14
2022-11-07T09:05:26.431Z,1009.04
2022-11-07T09:06:26.424Z,1009.07
2022-11-07T09:07:26.425Z,1009.03
2022-11-07T09:08:26.423Z,1009.03
2022-11-07T09:09:26.422Z,1009.02
2022-11-07T09:10:26.423Z,1008.95
2022-11-07T09:11:26.423Z,1008.99
2022-11-07T09:12:26.421Z,1008.94
2022-11-07T09:13:26.420Z,1008.90
2022-11-07T09:14:26.419Z,1008.93
2022-11-07T09:15:26.424Z,1009.05
2022-11-07T09:16:26.421Z,1008.92
2022-11-07T09:17:26.419Z,1009.01
2022-11-07T09:18:26.448Z,1008.98
2022-11-07T09:19:26.420Z,1009.04
2022-11-07T09:20:26.424Z,1009.12
2022-11-07T09:21:26.417Z,1009.02
2022-11-07T09:22:26.419Z,1008.94
2022-11-07T09:23:26.422Z,1009.02
2022-11-07T09:24:26.420Z,1009.10
2022-11-07T09:25:26.418Z,1009.13
2022-11-07T09:26:26.413Z,1009.09
2022-11-07T09:27:26.422Z,1009.08
2022-11-07T09:28:26.418Z,1009.05
2022-11-07T09:29:26.416Z,1009.07
2022-11-07T09:30:26.416Z,1008.99
2022-11-07T09:31:26.415Z,1009.09
2022-11-07T09:32:43.835Z,1009.08
2022-11-07T09:33:26.417Z,1009.14
2022-11-07T09:34:26.436Z,1009.23
2022-11-07T09:35:26.415Z,1009.09
2022-11-07T09:36:26.414Z,1009.13
2022-11-07T09:37:26.410Z,1009.22
2022-11-07T09:38:26.413Z,1009.14
2022-11-07T09:39:26.419Z,1009.24
2022-11-07T09:40:26.411Z,1009.29
2022-11-07T09:41:26.413Z,1009.25
2022-11-07T09:42:26.410Z,1009.39
2022-11-07T09:43:26.410Z,1009.43
2022-11-07T09:44:30.982Z,1009.47
2022-11-07T09:45:26.411Z,1009.54
2022-11-07T09:46:26.418Z,1009.56
2022-11-07T09:47:26.418Z,1009.49
2022-11-07T09:48:26.410Z,1009.36
2022-11-07T09:49:26.408Z,1009.43
2022-11-07T09:50:26.428Z,1009.42
2022-11-07T09:51:26.408Z,1009.49
2022-11-07T09:52:26.411Z,1009.61
2022-11-07T09:53:26.411Z,1009.53
2022-11-07T09:54:26.414Z,1009.39
2022-11-07T09:55:26.409Z,1009.39
2022-11-07T09:56:26.413Z,1009.35
2022-11-07T09:57:26.410Z,1009.44
2022-11-07T09:58:26.409Z,1009.37
2022-11-07T09:59:26.413Z,1009.41
2022-11-07T10:00:26.414Z,1009.35
2022-11-07T10:01:26.566Z,1009.42
2022-11-07T10:02:26.525Z,1009.50
2022-11-07T10:03:26.429Z,1009.41
2022-11-07T10:04:27.194Z,1009.48
2022-11-07T10:05:26.418Z,1009.36
2022-11-07T10:06:26.525Z,1009.46
2022-11-07T10:07:26.426Z,1009.43
2022-11-07T10:08:26.415Z,1009.44
2022-11-07T10:09:26.421Z,1009.46
2022-11-07T10:10:26.422Z,1009.47
2022-11-07T10:11:26.411Z,1009.77
2022-11-07T10:12:26.412Z,1009.44
2022-11-07T10:13:26.417Z,1009.34
2022-11-07T10:14:26.412Z,1009.29
2022-11-07T10:15:26.415Z,1009.45
2022-11-07T10:16:26.421Z,1009.44
2022-11-07T10:17:26.423Z,1009.53
2022-11-07T10:18:26.412Z,1009.80
2022-11-07T10:19:26.420Z,1009.86
2022-11-07T10:20:26.529Z,1009.75
2022-11-07T10:21:41.784Z,1009.57
2022-11-07T10:22:26.473Z,1009.50
2022-11-07T10:23:26.418Z,1009.50
2022-11-07T10:24:26.416Z,1009.54
2022-11-07T10:25:26.418Z,1009.60
2022-11-07T10:26:26.417Z,1009.81
2022-11-07T10:27:26.415Z,1009.69
2022-11-07T10:28:26.421Z,1009.57
2022-11-07T10:29:26.419Z,1009.40
2022-11-07T10:30:26.428Z,1009.40
2022-11-07T10:31:26.427Z,1009.39
2022-11-07T10:32:26.445Z,1009.42
2022-11-07T10:33:26.425Z,1009.49
2022-11-07T10:34:26.427Z,1009.68
2022-11-07T10:35:26.424Z,1009.82
2022-11-07T10:36:26.427Z,1009.86
2022-11-07T10:37:26.427Z,1009.86
2022-11-07T10:38:26.531Z,1009.99
2022-11-07T10:39:26.431Z,1009.94
2022-11-07T10:40:26.428Z,1010.12
2022-11-07T10:41:26.437Z,1010.02
2022-11-07T10:42:26.437Z,1010.15
2022-11-07T10:43:26.440Z,1010.11
2022-11-07T10:44:26.441Z,1009.98
2022-11-07T10:45:26.443Z,1010.15
2022-11-07T10:46:26.446Z,1010.19
2022-11-07T10:47:26.454Z,1010.12
2022-11-07T10:48:26.447Z,1010.06
2022-11-07T10:49:26.455Z,1009.90
2022-11-07T10:50:26.451Z,1009.95
2022-11-07T10:51:26.459Z,1010.00
2022-11-07T10:52:26.462Z,1009.90
2022-11-07T10:53:26.475Z,1009.96
2022-11-07T10:54:26.490Z,1009.90
2022-11-07T10:55:26.477Z,1009.87
2022-11-07T10:56:26.805Z,1009.51
2022-11-07T10:57:26.487Z,1009.71
2022-11-07T10:58:26.489Z,1009.75
2022-11-07T10:59:30.123Z,1009.65
2022-11-07T11:00:26.499Z,1009.85
2022-11-07T11:01:26.754Z,1009.90
2022-11-07T11:02:26.602Z,1009.79
2022-11-07T11:03:41.932Z,1009.74
2022-11-07T11:04:26.519Z,1009.77
2022-11-07T11:05:26.529Z,1009.73
2022-11-07T11:06:26.524Z,1009.86
2022-11-07T11:07:28.504Z,1009.91
2022-11-07T11:08:26.540Z,1009.73
2022-11-07T11:09:26.541Z,1009.82
2022-11-07T11:10:26.598Z,1009.93
2022-11-07T11:11:26.557Z,1009.89
2022-11-07T11:12:26.568Z,1009.86
2022-11-07T11:13:26.572Z,1009.89
2022-11-07T11:14:26.576Z,1009.86
2022-11-07T11:15:29.954Z,1009.86
2022-11-07T11:16:26.594Z,1010.01
2022-11-07T11:17:26.630Z,1009.99
2022-11-07T11:18:26.604Z,1009.93
2022-11-07T11:19:26.612Z,1009.85
2022-11-07T11:20:26.622Z,1009.87
2022-11-07T11:21:26.630Z,1009.89
2022-11-07T11:22:26.635Z,1009.99
2022-11-07T11:23:26.639Z,1009.99
2022-11-07T11:24:26.649Z,1009.93
2022-11-07T11:25:26.655Z,1009.81
2022-11-07T11:26:26.693Z,1009.90
2022-11-07T11:27:26.675Z,1009.89
2022-11-07T11:28:26.679Z,1009.48
2022-11-07T11:29:26.687Z,1009.73
2022-11-07T11:30:26.698Z,1009.27
2022-11-07T11:31:26.711Z,1009.49
2022-11-07T11:32:26.719Z,1009.46
2022-11-07T11:33:26.729Z,1009.53
2022-11-07T11:34:26.735Z,1009.59
2022-11-07T11:35:26.748Z,1009.50
2022-11-07T11:36:26.752Z,1009.68
2022-11-07T11:37:26.761Z,1009.62
2022-11-07T11:38:26.779Z,1009.68
2022-11-07T11:39:26.782Z,1009.61
2022-11-07T11:40:26.789Z,1009.29
2022-11-07T11:41:26.800Z,1009.27
2022-11-07T11:42:26.822Z,1009.45
2022-11-07T11:43:26.809Z,1009.27
2022-11-07T11:44:26.826Z,1009.32
2022-11-07T11:45:26.830Z,1009.35
2022-11-07T11:46:26.837Z,1009.39
2022-11-07T11:47:29.194Z,1009.42
2022-11-07T11:48:26.855Z,1009.50
2022-11-07T11:49:26.860Z,1009.57
2022-11-07T11:50:26.877Z,1009.56
2022-11-07T11:51:26.876Z,1009.61
2022-11-07T11:52:26.889Z,1009.66
2022-11-07T11:53:26.890Z,1009.72
2022-11-07T11:54:26.905Z,1009.50
2022-11-07T11:55:26.912Z,1009.46
2022-11-07T11:56:26.915Z,1009.47
2022-11-07T11:57:26.918Z,1009.33
2022-11-07T11:58:26.990Z,1009.39
2022-11-07T11:59:26.944Z,1009.36
2022-11-07T12:00:26.951Z,1009.27
2022-11-07T12:01:26.955Z,1009.22
2022-11-07T12:02:27.045Z,1009.25
2022-11-07T12:03:26.968Z,1009.19
2022-11-07T12:04:26.975Z,1009.14
2022-11-07T12:05:26.990Z,1009.11
2022-11-07T12:06:26.986Z,1009.17
2022-11-07T12:07:26.997Z,1009.27